Time;durP1;ratioP1;P1;durP2;ratioP2;P2;SDS_P1;SDS_P2;PMS_P1;PMS_P2;Temp;Humidity;BMP_temperature;BMP_pressure;BME280_temperature;BME280_humidity;BME280_pressure;Samples;Min_cycle;Max_cycle;Signal;HPM_P1;HPM_P2
2023/01/28 00:02:02;;;;;;;29.90;14.10;;;;;;;-2.27;70.58;99466.10;77973;1300;3068559;-62
2023/01/28 00:04:29;;;;;;;30.20;13.70;;;;;;;-2.26;70.47;99463.16;79261;1295;3013570;-61
2023/01/28 00:06:55;;;;;;;26.80;13.70;;;;;;;-2.26;70.34;99464.37;79266;1300;3011686;-63
2023/01/28 00:09:24;;;;;;;33.70;13.60;;;;;;;-2.21;70.51;99461.41;78073;1295;3029013;-62
2023/01/28 00:11:51;;;;;;;26.60;11.10;;;;;;;-2.13;70.17;99460.31;79298;1297;3013862;-62
2023/01/28 00:14:18;;;;;;;31.90;14.10;;;;;;;-2.20;69.68;99453.84;79261;1299;3012956;-61
2023/01/28 00:16:49;;;;;;;27.90;13.40;;;;;;;-2.25;70.09;99457.84;78085;1299;3067759;-61
2023/01/28 00:19:16;;;;;;;34.40;14.60;;;;;;;-2.31;69.91;99456.17;79233;1295;3012887;-61
2023/01/28 00:21:43;;;;;;;33.70;14.20;;;;;;;-2.34;70.22;99457.39;79327;1295;3011618;-61
2023/01/28 00:24:11;;;;;;;28.20;13.50;;;;;;;-2.39;70.27;99451.27;78192;1297;3052128;-61
2023/01/28 00:26:39;;;;;;;23.30;13.00;;;;;;;-2.34;70.40;99452.09;79263;1299;3011464;-60
2023/01/28 00:29:06;;;;;;;27.30;13.20;;;;;;;-2.31;70.61;99451.38;79274;1295;3013278;-61
2023/01/28 00:31:35;;;;;;;24.50;12.40;;;;;;;-2.23;70.51;99444.95;78028;1300;3068764;-62
2023/01/28 00:34:02;;;;;;;33.50;12.90;;;;;;;-2.23;70.17;99444.09;79352;1295;3014759;-62
2023/01/28 00:36:28;;;;;;;28.30;11.70;;;;;;;-2.19;69.99;99443.20;79264;1295;3013216;-62
2023/01/28 00:38:57;;;;;;;28.40;12.70;;;;;;;-2.18;69.99;99442.86;78098;1295;3052732;-62
2023/01/28 00:41:26;;;;;;;28.10;12.20;;;;;;;-2.18;69.82;99441.13;79305;1300;3013159;-61
2023/01/28 00:43:55;;;;;;;31.30;13.20;;;;;;;-2.14;69.73;99436.80;77981;1300;3051426;-62
2023/01/28 00:46:25;;;;;;;30.00;12.50;;;;;;;-2.19;69.64;99434.09;79396;1295;3013478;-62
2023/01/28 00:48:54;;;;;;;27.90;12.40;;;;;;;-2.20;69.71;99435.15;78908;1295;3012862;-62
2023/01/28 00:51:22;;;;;;;29.10;12.60;;;;;;;-2.23;69.75;99431.05;79405;1296;3014162;-62
2023/01/28 00:53:49;;;;;;;32.30;12.80;;;;;;;-2.29;69.83;99428.37;79302;1296;3012823;-61
2023/01/28 00:56:18;;;;;;;27.10;12.20;;;;;;;-2.44;70.75;99425.74;78106;1298;3050239;-62
2023/01/28 00:58:45;;;;;;;26.00;12.60;;;;;;;-2.32;70.26;99424.11;79321;1298;3013740;-62
2023/01/28 01:01:13;;;;;;;27.40;12.20;;;;;;;-2.29;70.37;99423.39;79479;1298;3012964;-61
2023/01/28 01:03:41;;;;;;;29.70;13.10;;;;;;;-2.31;70.37;99420.83;77981;1301;3052175;-62
2023/01/28 01:06:08;;;;;;;31.00;12.60;;;;;;;-2.40;70.21;99419.70;79384;1295;3013108;-62
2023/01/28 01:08:41;;;;;;;26.30;11.80;;;;;;;-2.54;70.97;99415.20;78288;1298;3052802;-63
2023/01/28 04:44:26;;;;;;;21.30;10.10;;;;;;;-4.41;74.60;99339.58;80318;1299;3011564;-63
2023/01/28 04:46:52;;;;;;;25.40;10.30;;;;;;;-4.36;74.84;99341.79;79200;1298;3013270;-63
2023/01/28 04:49:39;;;;;;;20.20;11.10;;;;;;;-4.32;75.40;99342.13;77947;1301;3053516;-59
2023/01/28 04:52:19;;;;;;;19.50;9.80;;;;;;;-4.20;75.23;99345.35;77927;1302;3052568;-59
2023/01/28 04:55:10;;;;;;;24.70;10.10;;;;;;;-4.23;74.69;99349.64;77851;1304;3069360;-62
2023/01/28 04:57:41;;;;;;;22.50;10.60;;;;;;;-4.09;74.54;99345.99;78022;1295;4828735;-63
2023/01/28 05:00:10;;;;;;;21.90;11.20;;;;;;;-3.98;73.85;99343.05;78166;1298;3026962;-63
2023/01/28 05:02:36;;;;;;;26.20;11.40;;;;;;;-3.93;73.50;99348.00;79484;1295;3013632;-61
2023/01/28 05:05:05;;;;;;;21.80;10.90;;;;;;;-3.93;73.48;99354.48;79457;1295;3011821;-61
2023/01/28 05:07:42;;;;;;;20.90;10.20;;;;;;;-3.93;73.44;99355.35;78037;1301;3052869;-61
2023/01/28 05:10:09;;;;;;;23.00;10.30;;;;;;;-3.98;73.00;99354.69;79410;1298;3012965;-62
2023/01/28 05:12:36;;;;;;;24.40;11.10;;;;;;;-3.96;73.40;99352.80;79371;1300;3011674;-62
2023/01/28 05:15:08;;;;;;;21.70;10.70;;;;;;;-3.93;72.96;99355.87;78083;1298;3056225;-64
2023/01/28 05:17:35;;;;;;;22.10;10.50;;;;;;;-3.88;73.04;99357.56;79538;1296;3013721;-63
2023/01/28 05:20:03;;;;;;;21.50;10.30;;;;;;;-3.78;72.96;99360.08;79301;1296;3013204;-62
2023/01/28 05:22:32;;;;;;;23.20;10.30;;;;;;;-3.75;72.70;99366.41;78292;1298;3053025;-62
2023/01/28 05:25:15;;;;;;;22.10;10.70;;;;;;;-3.73;72.33;99362.12;78191;1298;3052954;-64
2023/01/28 05:27:41;;;;;;;22.80;10.30;;;;;;;-3.79;72.20;99356.84;79290;1300;3013205;-65
2023/01/28 05:30:09;;;;;;;30.80;11.30;;;;;;;-3.72;72.35;99359.71;79344;1300;3011681;-61
2023/01/28 05:32:37;;;;;;;21.80;9.70;;;;;;;-3.62;72.33;99356.77;78145;1296;3049394;-62
2023/01/28 05:35:04;;;;;;;26.90;10.30;;;;;;;-3.55;72.21;99353.98;79255;1296;3012995;-62
2023/01/28 05:37:31;;;;;;;20.80;10.20;;;;;;;-3.55;71.68;99351.76;79380;1296;3011841;-62
2023/01/28 05:39:59;;;;;;;23.90;10.10;;;;;;;-3.57;71.35;99357.77;78075;1298;3053023;-64
2023/01/28 05:42:26;;;;;;;21.60;10.00;;;;;;;-3.61;71.50;99357.27;79249;1298;3013129;-62
2023/01/28 05:45:03;;;;;;;17.40;9.40;;;;;;;-3.49;71.42;99358.41;78001;1300;3057466;-62
2023/01/28 05:48:00;;;;;;;21.70;9.50;;;;;;;-3.41;70.97;99353.40;78173;1299;3049955;-64
2023/01/28 05:50:41;;;;;;;19.30;9.40;;;;;;;-3.44;70.78;99358.90;78115;1295;3053627;-62
2023/01/28 05:53:23;;;;;;;18.00;8.90;;;;;;;-3.44;71.04;99360.95;78019;1298;3050454;-60
2023/01/28 05:55:52;;;;;;;20.60;8.90;;;;;;;-3.29;71.28;99363.27;79275;1300;3012922;-62
2023/01/28 05:58:19;;;;;;;23.30;9.50;;;;;;;-3.20;70.59;99369.39;79305;1295;3013162;-61
2023/01/28 06:00:47;;;;;;;20.70;10.00;;;;;;;-3.26;70.36;99369.23;78065;1300;3050863;-62
2023/01/28 06:03:15;;;;;;;19.70;9.10;;;;;;;-3.33;70.19;99367.23;79303;1295;3013228;-60
2023/01/28 06:05:45;;;;;;;16.80;8.80;;;;;;;-3.26;70.44;99369.75;78773;1296;3013228;-63
2023/01/28 06:08:12;;;;;;;19.90;9.40;;;;;;;-3.22;70.04;99369.39;79163;1301;3011889;-59
2023/01/28 06:10:39;;;;;;;20.60;9.80;;;;;;;-3.19;69.73;99367.15;79287;1295;3011587;-62
2023/01/28 06:13:07;;;;;;;19.90;9.40;;;;;;;-3.25;69.81;99365.98;78249;1300;3051600;-65
2023/01/28 06:15:53;;;;;;;19.80;9.30;;;;;;;-3.25;69.68;99359.82;78133;1295;3069116;-64
2023/01/28 06:18:41;;;;;;;22.10;10.70;;;;;;;-3.32;69.70;99356.09;78140;1301;3051659;-62
2023/01/28 06:21:09;;;;;;;21.40;9.20;;;;;;;-3.48;70.38;99358.75;79273;1295;3013002;-62
2023/01/28 06:23:36;;;;;;;19.10;9.20;;;;;;;-3.27;70.55;99355.89;79210;1296;3011826;-65
2023/01/28 06:26:08;;;;;;;24.40;9.50;;;;;;;-3.28;69.92;99356.42;78033;1301;3048894;-64
2023/01/28 06:28:36;;;;;;;22.30;10.10;;;;;;;-3.42;69.85;99349.29;79224;1296;3013206;-64
2023/01/28 06:31:02;;;;;;;19.50;9.00;;;;;;;-3.32;70.10;99351.30;79158;1301;3011754;-63
2023/01/28 06:33:31;;;;;;;18.90;9.40;;;;;;;-3.35;69.75;99353.36;77996;1295;3052420;-63
2023/01/28 06:36:02;;;;;;;19.10;9.40;;;;;;;-3.32;69.89;99355.92;79318;1294;3013493;-60
2023/01/28 06:38:30;;;;;;;21.50;9.70;;;;;;;-3.28;69.88;99358.80;78269;1298;3049171;-62
2023/01/28 06:40:57;;;;;;;19.80;9.80;;;;;;;-3.38;70.02;99358.52;79537;1295;3013653;-63
2023/01/28 06:43:29;;;;;;;18.60;9.40;;;;;;;-3.39;70.18;99354.93;78311;1298;3051243;-63
2023/01/28 06:45:56;;;;;;;23.80;10.00;;;;;;;-3.29;70.30;99359.16;79482;1297;3013069;-67
2023/01/28 06:48:23;;;;;;;19.10;8.80;;;;;;;-3.12;69.62;99358.19;79430;1296;3013080;-68
2023/01/28 06:50:51;;;;;;;20.50;9.30;;;;;;;-3.01;69.04;99362.40;78376;1298;3055065;-59
2023/01/28 06:53:18;;;;;;;17.50;8.60;;;;;;;-2.86;69.03;99353.04;79383;1294;3012821;-60
2023/01/28 06:55:45;;;;;;;22.30;9.40;;;;;;;-2.72;68.56;99357.73;79366;1294;3011658;-60
2023/01/28 06:58:13;;;;;;;18.60;10.00;;;;;;;-2.68;68.24;99355.11;78372;1295;3026071;-61
2023/01/28 07:00:40;;;;;;;16.30;7.90;;;;;;;-2.66;67.86;99353.91;79611;1298;3013264;-59
2023/01/28 07:03:06;;;;;;;18.30;9.20;;;;;;;-2.62;67.74;99350.27;79494;1295;3011638;-60
2023/01/28 07:05:34;;;;;;;21.50;9.10;;;;;;;-2.65;67.48;99348.74;78203;1298;3028572;-61
2023/01/28 07:08:01;;;;;;;25.50;9.40;;;;;;;-2.66;67.26;99351.67;79500;1298;3013458;-59
2023/01/28 07:10:28;;;;;;;18.60;9.00;;;;;;;-2.63;67.41;99351.82;79512;1294;3011659;-61
2023/01/28 07:12:56;;;;;;;18.70;9.10;;;;;;;-2.65;67.33;99344.80;78260;1294;3051624;-57
2023/01/28 07:15:23;;;;;;;15.00;8.20;;;;;;;-2.61;67.60;99341.16;79472;1298;3013168;-60
2023/01/28 07:17:49;;;;;;;19.00;8.80;;;;;;;-2.60;67.04;99340.64;79291;1298;3011636;-59
2023/01/28 07:20:18;;;;;;;20.50;9.60;;;;;;;-2.62;66.82;99344.60;78284;1294;3055023;-59
2023/01/28 07:22:45;;;;;;;18.40;8.40;;;;;;;-2.70;67.04;99340.89;79427;1296;3013235;-58
2023/01/28 07:25:12;;;;;;;15.50;7.70;;;;;;;-2.73;67.17;99339.21;79374;1295;3011481;-59
2023/01/28 07:27:51;;;;;;;17.00;8.70;;;;;;;-2.65;67.14;99338.79;78144;1298;3028096;-59
2023/01/28 07:30:19;;;;;;;17.00;8.10;;;;;;;-2.60;67.24;99342.52;78161;1298;3052271;-62
2023/01/28 07:32:46;;;;;;;18.10;8.20;;;;;;;-2.59;67.17;99342.35;79567;1295;3012773;-64
2023/01/28 07:35:13;;;;;;;19.00;9.10;;;;;;;-2.81;67.55;99342.20;79518;1294;3011759;-65
2023/01/28 07:37:41;;;;;;;16.00;8.90;;;;;;;-2.80;68.08;99349.05;78281;1298;3050014;-65
2023/01/28 07:40:09;;;;;;;17.90;8.70;;;;;;;-2.62;67.95;99348.89;79423;1295;3013451;-64
2023/01/28 07:42:36;;;;;;;17.30;8.80;;;;;;;-2.66;67.38;99341.90;79520;1295;3013054;-61
2023/01/28 07:45:08;;;;;;;15.70;8.10;;;;;;;-2.73;67.63;99338.70;78009;1304;3052279;-64
2023/01/28 07:47:35;;;;;;;22.70;8.10;;;;;;;-2.73;67.68;99340.24;79477;1295;3013285;-61
2023/01/28 07:50:01;;;;;;;14.20;8.80;;;;;;;-2.79;67.94;99342.00;79440;1296;3011803;-63
2023/01/28 07:52:29;;;;;;;18.40;8.90;;;;;;;-2.93;68.23;99347.42;78366;1295;3049706;-67
2023/01/28 07:54:56;;;;;;;19.40;9.60;;;;;;;-3.07;69.14;99355.59;79409;1294;3020889;-65
2023/01/28 07:57:22;;;;;;;17.70;9.20;;;;;;;-3.15;69.46;99355.98;79499;1298;3011822;-62
2023/01/28 07:59:50;;;;;;;19.90;10.00;;;;;;;-3.08;69.55;99357.13;78156;1298;3026585;-61
2023/01/28 08:02:17;;;;;;;17.20;9.30;;;;;;;-3.15;70.00;99357.17;79503;1298;3013310;-65
2023/01/28 08:04:45;;;;;;;19.10;9.70;;;;;;;-3.04;69.75;99360.02;79611;1298;3013084;-69
2023/01/28 08:07:13;;;;;;;19.90;9.40;;;;;;;-3.26;70.35;99361.88;78170;1295;3049323;-63
2023/01/28 08:09:39;;;;;;;19.50;9.80;;;;;;;-3.07;70.83;99368.78;79428;1295;3013494;-63
2023/01/28 08:12:06;;;;;;;22.40;10.00;;;;;;;-3.05;70.01;99369.80;79464;1298;3012965;-64
2023/01/28 08:14:35;;;;;;;17.40;9.40;;;;;;;-3.08;70.27;99365.36;78273;1295;3026005;-63
2023/01/28 08:17:05;;;;;;;18.80;9.10;;;;;;;-2.98;69.80;99365.80;79309;1301;3013028;-61
2023/01/28 08:19:33;;;;;;;17.50;9.50;;;;;;;-3.05;69.71;99364.13;78167;1298;3028929;-62
2023/01/28 08:21:59;;;;;;;19.30;8.50;;;;;;;-3.22;70.43;99369.40;79528;1299;3013223;-62
2023/01/28 08:24:27;;;;;;;20.40;9.30;;;;;;;-3.11;70.60;99371.37;79530;1296;3011924;-65
2023/01/28 08:26:54;;;;;;;17.10;8.30;;;;;;;-3.14;70.98;99370.54;78244;1298;3050699;-61
2023/01/28 08:29:21;;;;;;;17.90;9.10;;;;;;;-3.13;70.76;99368.81;79366;1298;3018450;-64
2023/01/28 08:31:47;;;;;;;20.70;10.00;;;;;;;-3.25;71.38;99363.77;79467;1295;3011632;-64
2023/01/28 08:34:15;;;;;;;29.10;10.90;;;;;;;-3.29;72.25;99362.23;78271;1295;3025759;-65
2023/01/28 08:36:42;;;;;;;20.60;9.10;;;;;;;-3.11;72.16;99354.42;79740;1294;3013218;-62
2023/01/28 08:39:08;;;;;;;21.00;10.10;;;;;;;-3.03;72.23;99352.48;79551;1298;3011670;-65
2023/01/28 08:41:36;;;;;;;21.50;10.30;;;;;;;-2.92;72.06;99345.71;78311;1298;3028467;-64
2023/01/28 08:44:02;;;;;;;21.40;10.10;;;;;;;-2.89;71.92;99347.23;79415;1295;3013366;-64
2023/01/28 08:46:30;;;;;;;17.50;8.80;;;;;;;-2.85;72.30;99344.79;79480;1298;3013203;-64
2023/01/28 08:48:58;;;;;;;20.40;9.90;;;;;;;-2.75;72.40;99338.55;78181;1298;3051297;-64
2023/01/28 08:51:26;;;;;;;18.30;8.70;;;;;;;-2.88;72.41;99339.51;79438;1296;3013127;-64
2023/01/28 08:53:52;;;;;;;17.50;9.40;;;;;;;-2.83;72.81;99337.58;79666;1295;3011913;-63
2023/01/28 08:56:20;;;;;;;27.10;12.10;;;;;;;-2.82;73.55;99334.14;78174;1298;3049461;-63
2023/01/28 08:58:47;;;;;;;21.20;10.40;;;;;;;-2.81;73.86;99335.84;79476;1298;3018515;-61
2023/01/28 09:01:13;;;;;;;22.40;9.70;;;;;;;-2.72;73.67;99337.31;79414;1295;3011862;-64
2023/01/28 09:03:41;;;;;;;19.20;9.70;;;;;;;-2.58;73.38;99333.25;78317;1295;3028019;-64
2023/01/28 09:06:08;;;;;;;20.30;8.60;;;;;;;-2.46;73.09;99328.33;79454;1298;3013000;-63
2023/01/28 09:08:34;;;;;;;27.00;9.90;;;;;;;-2.47;73.04;99325.95;79494;1298;3013531;-63
2023/01/28 09:11:02;;;;;;;22.10;10.40;;;;;;;-2.60;73.61;99332.23;78333;1295;3028826;-63
2023/01/28 09:13:29;;;;;;;22.50;9.50;;;;;;;-2.54;73.96;99330.80;79418;1298;3019251;-63
2023/01/28 09:15:56;;;;;;;20.50;9.50;;;;;;;-2.38;73.54;99325.16;79442;1295;3012979;-63
2023/01/28 09:18:25;;;;;;;15.60;8.20;;;;;;;-2.25;72.86;99325.37;78210;1298;3051551;-63
2023/01/28 09:20:51;;;;;;;19.80;9.20;;;;;;;-2.10;72.43;99319.89;79412;1298;3013641;-66
2023/01/28 09:23:18;;;;;;;19.50;8.80;;;;;;;-2.25;72.64;99309.05;79550;1295;3011859;-60
2023/01/28 09:25:45;;;;;;;21.40;8.70;;;;;;;-2.30;73.23;99301.73;78179;1298;3028047;-63
2023/01/28 09:28:12;;;;;;;20.30;8.20;;;;;;;-2.14;72.76;99300.36;79457;1298;3013550;-63
2023/01/28 09:30:38;;;;;;;15.00;7.10;;;;;;;-2.08;72.29;99293.77;79614;1298;3011368;-62
2023/01/28 09:33:06;;;;;;;20.40;8.60;;;;;;;-2.10;71.86;99291.39;78362;1294;3025932;-61
2023/01/28 09:35:34;;;;;;;20.30;8.60;;;;;;;-2.13;72.49;99291.59;79525;1295;3013692;-60
2023/01/28 09:38:01;;;;;;;16.40;8.00;;;;;;;-2.04;72.68;99288.92;79564;1295;3013259;-62
2023/01/28 09:40:39;;;;;;;19.90;8.80;;;;;;;-2.06;72.49;99293.76;78271;1298;3049940;-59
2023/01/28 09:43:39;;;;;;;15.90;7.80;;;;;;;-2.04;72.70;99294.94;78203;1301;3053360;-60
2023/01/28 09:46:10;;;;;;;19.20;7.90;;;;;;;-1.94;72.74;99292.23;78211;1295;3052547;-60
2023/01/28 09:48:42;;;;;;;20.50;9.20;;;;;;;-1.95;72.36;99294.82;79523;1295;3011772;-62
2023/01/28 09:51:22;;;;;;;16.10;8.10;;;;;;;-2.09;72.94;99294.46;78170;1297;3051467;-63
2023/01/28 09:53:50;;;;;;;17.30;9.00;;;;;;;-2.10;73.37;99298.08;78250;1297;3056744;-61
2023/01/28 09:56:50;;;;;;;19.50;9.40;;;;;;;-2.03;72.95;99294.75;79461;1296;3020809;-60
2023/01/28 09:59:20;;;;;;;17.00;7.80;;;;;;;-1.88;72.89;99292.66;77992;1298;3050152;-67
2023/01/28 10:01:50;;;;;;;20.30;8.20;;;;;;;-1.77;72.39;99292.86;79564;1298;3013510;-62
2023/01/28 14:00:41;;;;;;;11.30;7.20;;;;;;;-1.10;74.29;99217.13;80086;1304;3014055;-60
2023/01/28 14:03:42;;;;;;;9.90;4.10;;;;;;;-1.08;74.83;99218.30;78377;1306;3012104;-59
2023/01/28 14:06:26;;;;;;;13.20;6.50;;;;;;;-0.03;73.46;99221.94;77629;1306;3053814;-71
2023/01/28 14:09:18;;;;;;;9.10;5.00;;;;;;;0.74;70.16;99217.97;77711;1307;3049900;-68
2023/01/28 14:12:05;;;;;;;10.60;5.50;;;;;;;1.00;68.98;99220.45;77662;1307;3053292;-62
2023/01/28 14:14:55;;;;;;;8.50;4.40;;;;;;;0.82;68.70;99225.54;76520;1303;4817327;-58
2023/01/28 14:17:52;;;;;;;10.90;5.80;;;;;;;0.62;69.34;99226.38;77952;1303;3069689;-66
2023/01/28 14:20:36;;;;;;;12.80;6.30;;;;;;;0.45;69.06;99228.66;77956;1301;3050646;-63
2023/01/28 14:23:13;;;;;;;10.10;5.90;;;;;;;0.24;68.93;99236.20;78403;1304;3056920;-62
2023/01/28 14:25:46;;;;;;;10.60;6.00;;;;;;;0.00;69.42;99234.64;78250;1304;3049485;-67
2023/01/28 14:28:19;;;;;;;13.60;6.90;;;;;;;-0.15;70.14;99238.40;79198;1299;3011889;-66
2023/01/28 14:30:49;;;;;;;10.20;6.10;;;;;;;-0.09;70.27;99244.14;77996;1304;3049790;-75
2023/01/28 14:33:16;;;;;;;11.50;5.80;;;;;;;-0.03;70.30;99239.54;79414;1299;3011354;-68
2023/01/28 14:35:46;;;;;;;12.70;6.10;;;;;;;-0.27;70.01;99244.84;79323;1298;3012877;-72
2023/01/28 14:38:16;;;;;;;13.30;7.30;;;;;;;-0.41;70.44;99249.25;77997;1301;3049263;-64
2023/01/28 14:40:43;;;;;;;8.70;6.00;;;;;;;-0.42;71.06;99250.13;79448;1297;3013417;-66
2023/01/28 14:43:24;;;;;;;15.20;6.30;;;;;;;-0.45;70.93;99251.21;79305;1299;3011444;-69
2023/01/28 14:46:10;;;;;;;13.00;6.60;;;;;;;-0.36;71.11;99248.81;77972;1301;3051154;-65
2023/01/28 14:49:04;;;;;;;12.00;5.90;;;;;;;-0.30;71.00;99250.59;78106;1298;3052611;-63
2023/01/28 14:51:36;;;;;;;11.50;6.00;;;;;;;-0.30;70.66;99254.70;78029;1298;3052177;-61
2023/01/28 14:54:28;;;;;;;12.40;6.80;;;;;;;-0.29;70.68;99259.70;79268;1299;3011647;-62
2023/01/28 14:57:05;;;;;;;15.10;7.00;;;;;;;-0.41;70.52;99262.84;78009;1297;3051721;-61
2023/01/28 14:59:37;;;;;;;13.50;6.40;;;;;;;-0.44;70.98;99265.83;78137;1297;3057238;-61
2023/01/28 15:02:21;;;;;;;15.90;7.50;;;;;;;-0.44;70.98;99263.75;79210;1301;3012021;-58
2023/01/28 15:04:50;;;;;;;17.50;7.80;;;;;;;-0.40;70.75;99263.52;78008;1299;3053956;-57
2023/01/28 15:07:18;;;;;;;12.10;6.60;;;;;;;-0.33;70.62;99260.80;79281;1298;3013238;-58
2023/01/28 15:09:46;;;;;;;14.80;7.60;;;;;;;-0.32;70.24;99263.54;79202;1299;3011975;-70
2023/01/28 15:12:14;;;;;;;12.40;7.00;;;;;;;-0.37;70.27;99261.39;78018;1300;3067175;-61
2023/01/28 15:14:43;;;;;;;14.50;7.50;;;;;;;-0.33;70.18;99268.73;79236;1298;3011980;-65
2023/01/28 15:17:20;;;;;;;16.20;7.70;;;;;;;-0.43;70.52;99271.66;78818;1298;3011641;-64
2023/01/28 15:19:48;;;;;;;14.00;7.40;;;;;;;-0.51;70.64;99271.45;77989;1298;3048677;-60
2023/01/28 15:22:15;;;;;;;12.30;7.40;;;;;;;-0.47;70.76;99273.44;79340;1298;3012876;-60
2023/01/28 15:24:42;;;;;;;14.30;7.20;;;;;;;-0.50;71.06;99279.70;79260;1298;3012922;-61
2023/01/28 15:27:16;;;;;;;12.30;6.50;;;;;;;-0.50;70.63;99283.83;78081;1303;3026902;-62
2023/01/28 15:29:53;;;;;;;12.90;6.60;;;;;;;-0.55;70.80;99285.46;78752;1301;3011947;-58
2023/01/28 15:32:41;;;;;;;10.70;6.00;;;;;;;-0.45;70.57;99279.79;77959;1298;3068437;-58
2023/01/28 15:35:12;;;;;;;12.30;6.40;;;;;;;-0.55;70.36;99285.80;79194;1299;3012949;-68
2023/01/28 15:37:40;;;;;;;12.90;6.60;;;;;;;-0.57;70.78;99286.55;78023;1301;3050206;-58
2023/01/28 15:40:16;;;;;;;15.10;7.40;;;;;;;-0.55;70.95;99289.26;79199;1301;3012855;-61
2023/01/28 15:42:44;;;;;;;14.60;7.70;;;;;;;-0.53;70.99;99288.35;78127;1301;3052389;-63
2023/01/28 15:45:16;;;;;;;17.30;8.00;;;;;;;-0.62;70.99;99287.67;79253;1304;3013325;-63
2023/01/28 15:47:45;;;;;;;13.30;7.20;;;;;;;-0.58;71.39;99285.52;78214;1298;3050074;-58
2023/01/28 15:50:22;;;;;;;14.00;7.10;;;;;;;-0.56;70.92;99285.66;79299;1301;3013112;-59
2023/01/28 15:52:50;;;;;;;13.30;7.10;;;;;;;-0.58;71.09;99289.14;78227;1295;3052969;-65
2023/01/28 15:55:30;;;;;;;12.70;6.80;;;;;;;-0.52;71.21;99290.41;79457;1298;3014018;-60
2023/01/28 15:58:11;;;;;;;12.50;6.80;;;;;;;-0.46;70.73;99293.91;78219;1298;3051951;-60
2023/01/28 16:00:39;;;;;;;13.80;7.00;;;;;;;-0.54;70.83;99291.13;78191;1298;3069384;-62
2023/01/28 16:03:08;;;;;;;17.30;8.10;;;;;;;-0.49;70.88;99292.40;79255;1300;3015810;-72
2023/01/28 16:05:39;;;;;;;15.00;6.70;;;;;;;-0.41;70.55;99291.06;78909;1295;3011885;-60
2023/01/28 16:08:10;;;;;;;17.50;7.10;;;;;;;-0.39;70.46;99292.91;79553;1294;3012512;-62
2023/01/28 16:10:38;;;;;;;12.80;7.00;;;;;;;-0.44;70.32;99294.90;78546;1298;3051382;-61
2023/01/28 16:13:23;;;;;;;14.60;6.00;;;;;;;-0.40;70.28;99294.48;79454;1298;3013070;-60
2023/01/28 16:15:52;;;;;;;14.50;6.60;;;;;;;-0.37;70.49;99292.72;78127;1298;3069680;-60
2023/01/28 16:18:29;;;;;;;14.40;7.70;;;;;;;-0.41;70.12;99295.89;79590;1295;3013915;-63
2023/01/28 16:20:58;;;;;;;12.70;7.10;;;;;;;-0.33;70.26;99296.77;78150;1298;3049856;-62
2023/01/28 16:23:26;;;;;;;12.70;6.70;;;;;;;-0.38;70.05;99298.42;79536;1295;3014437;-65
2023/01/28 16:26:04;;;;;;;13.00;7.00;;;;;;;-0.40;70.14;99299.48;79378;1298;3011581;-61
2023/01/28 16:28:32;;;;;;;13.00;6.50;;;;;;;-0.45;70.40;99303.02;78249;1298;3051803;-63
2023/01/28 16:30:59;;;;;;;16.00;7.80;;;;;;;-0.52;70.59;99299.52;79442;1298;3013212;-58
2023/01/28 16:33:25;;;;;;;14.50;7.50;;;;;;;-0.44;70.32;99300.94;79417;1298;3013272;-62
2023/01/28 16:35:54;;;;;;;14.40;7.40;;;;;;;-0.39;70.28;99299.63;78261;1298;3025239;-62
2023/01/28 16:38:20;;;;;;;15.10;6.90;;;;;;;-0.34;70.20;99300.41;79388;1296;3013996;-63
2023/01/28 16:40:48;;;;;;;15.90;7.50;;;;;;;-0.39;69.84;99296.02;79357;1296;3012892;-67
2023/01/28 16:43:16;;;;;;;15.10;7.80;;;;;;;-0.48;70.27;99298.42;78296;1295;3051429;-60
2023/01/28 16:45:43;;;;;;;14.10;7.30;;;;;;;-0.51;70.24;99299.48;79512;1298;3013299;-63
2023/01/28 16:48:12;;;;;;;11.20;6.50;;;;;;;-0.54;70.51;99295.09;79433;1294;3013308;-63
2023/01/28 16:50:40;;;;;;;16.00;7.40;;;;;;;-0.47;70.75;99294.96;78366;1298;3049183;-63
2023/01/28 16:53:18;;;;;;;14.50;6.90;;;;;;;-0.49;70.64;99292.58;79435;1298;3013371;-63
2023/01/28 16:55:48;;;;;;;13.30;7.10;;;;;;;-0.43;70.34;99294.38;78171;1298;3053109;-61
2023/01/28 16:58:21;;;;;;;17.20;7.60;;;;;;;-0.34;70.47;99295.77;79446;1298;3012150;-64
2023/01/28 17:00:49;;;;;;;19.30;7.70;;;;;;;-0.29;70.06;99291.70;78161;1298;3069242;-62
2023/01/28 17:03:16;;;;;;;14.50;7.20;;;;;;;-0.23;69.85;99293.48;79458;1296;3012852;-64
2023/01/28 17:05:42;;;;;;;15.40;7.50;;;;;;;-0.27;70.02;99291.31;79341;1296;3013546;-64
2023/01/28 17:08:10;;;;;;;16.60;7.40;;;;;;;-0.24;69.77;99289.70;78378;1295;3028307;-62
2023/01/28 17:10:37;;;;;;;15.50;8.30;;;;;;;-0.33;70.21;99287.65;79385;1302;3013186;-63
2023/01/28 17:13:03;;;;;;;18.20;7.80;;;;;;;-0.48;70.72;99292.58;79414;1298;3012056;-64
2023/01/28 17:15:33;;;;;;;16.10;7.90;;;;;;;-0.41;70.67;99289.33;78239;1298;3028946;-63
2023/01/28 17:18:00;;;;;;;16.90;8.10;;;;;;;-0.42;70.48;99287.65;79429;1295;3011396;-59
2023/01/28 17:20:31;;;;;;;14.40;7.40;;;;;;;-0.47;70.77;99289.28;78384;1298;3028637;-61
2023/01/28 17:23:00;;;;;;;15.10;7.50;;;;;;;-0.45;70.97;99290.80;79413;1295;3013613;-63
2023/01/28 17:25:29;;;;;;;12.90;6.70;;;;;;;-0.32;70.58;99285.91;78689;1295;3011738;-63
2023/01/28 17:27:55;;;;;;;15.30;7.30;;;;;;;-0.40;70.53;99288.29;79327;1301;3012897;-62
2023/01/28 17:30:22;;;;;;;14.10;7.90;;;;;;;-0.43;70.77;99288.02;79207;1299;3013137;-63
2023/01/28 17:32:50;;;;;;;12.70;7.60;;;;;;;-0.47;70.85;99283.95;78122;1298;3028290;-62
2023/01/28 17:35:16;;;;;;;13.70;7.00;;;;;;;-0.47;70.79;99282.75;79239;1301;3013518;-60
2023/01/28 17:37:52;;;;;;;13.90;7.40;;;;;;;-0.39;70.84;99280.52;78097;1301;3050187;-62
2023/01/28 17:40:19;;;;;;;17.20;8.10;;;;;;;-0.48;71.11;99280.19;79257;1294;3011694;-61
2023/01/28 17:42:48;;;;;;;23.90;8.80;;;;;;;-0.38;71.18;99276.72;78342;1301;3050217;-64
2023/01/28 17:45:15;;;;;;;15.50;7.50;;;;;;;-0.37;70.85;99272.23;79395;1299;3013619;-62
2023/01/28 17:47:42;;;;;;;14.80;6.70;;;;;;;-0.26;70.45;99272.20;79540;1298;3011571;-62
2023/01/28 17:50:10;;;;;;;18.00;7.20;;;;;;;-0.29;70.52;99268.63;79731;1295;3051412;-62
2023/01/28 17:52:40;;;;;;;15.10;6.80;;;;;;;-0.25;70.79;99269.42;81171;1295;3011313;-62
2023/01/28 17:55:10;;;;;;;17.50;7.30;;;;;;;-0.27;70.66;99268.08;78946;1295;3013714;-61
2023/01/28 17:57:37;;;;;;;13.70;7.60;;;;;;;-0.23;70.77;99263.88;79490;1295;3013040;-62
2023/01/28 18:00:09;;;;;;;14.50;6.50;;;;;;;-0.15;70.81;99261.31;78941;1298;3013138;-63
2023/01/28 18:02:38;;;;;;;15.30;7.30;;;;;;;-0.10;70.46;99263.77;79494;1296;3011739;-62
2023/01/28 18:05:07;;;;;;;12.30;7.50;;;;;;;-0.07;70.36;99264.91;78330;1298;3028209;-63
2023/01/28 18:07:36;;;;;;;13.60;6.70;;;;;;;-0.19;70.35;99260.70;79573;1295;3011678;-61
2023/01/28 18:10:05;;;;;;;16.10;7.30;;;;;;;-0.10;70.70;99260.67;79101;1296;3011796;-62
2023/01/28 18:12:34;;;;;;;14.00;7.50;;;;;;;-0.13;70.59;99260.57;79673;1298;3011474;-63
2023/01/28 18:15:03;;;;;;;14.80;8.10;;;;;;;-0.20;70.98;99255.89;79981;1295;3011398;-62
2023/01/28 18:17:30;;;;;;;13.20;7.00;;;;;;;-0.24;71.35;99258.73;79324;1296;3012501;-63
2023/01/28 18:19:57;;;;;;;18.10;7.50;;;;;;;-0.14;71.12;99255.27;79414;1296;3011499;-62
2023/01/28 18:22:25;;;;;;;12.50;7.60;;;;;;;-0.04;71.02;99259.19;78171;1298;3051241;-62
2023/01/28 18:24:51;;;;;;;13.80;7.50;;;;;;;-0.02;70.85;99258.29;79681;1295;3013578;-62
2023/01/28 18:27:19;;;;;;;16.20;7.80;;;;;;;0.04;70.88;99258.15;79330;1298;3011762;-62
2023/01/28 18:29:47;;;;;;;16.20;8.50;;;;;;;0.10;70.25;99255.09;78285;1296;3048867;-66
2023/01/28 18:32:14;;;;;;;15.00;7.40;;;;;;;0.04;70.78;99257.14;79565;1295;3013570;-64
2023/01/28 18:34:41;;;;;;;17.10;8.10;;;;;;;0.06;70.79;99253.48;79460;1298;3011687;-64
2023/01/28 18:37:09;;;;;;;13.50;7.20;;;;;;;0.13;70.66;99252.45;78073;1300;3026006;-61
2023/01/28 18:39:36;;;;;;;16.50;8.60;;;;;;;0.13;70.44;99250.55;79474;1298;3013218;-64
2023/01/28 18:42:03;;;;;;;15.20;7.10;;;;;;;0.19;70.56;99250.79;79436;1298;3013739;-65
2023/01/28 18:44:33;;;;;;;13.90;7.70;;;;;;;0.24;70.36;99248.59;78154;1298;3049467;-61
2023/01/28 18:47:00;;;;;;;16.50;7.60;;;;;;;0.24;70.52;99248.78;79309;1295;3013611;-65
2023/01/28 18:49:26;;;;;;;14.60;7.40;;;;;;;0.32;70.64;99245.15;79416;1298;3011539;-64
2023/01/28 18:51:54;;;;;;;15.30;7.10;;;;;;;0.47;70.21;99244.13;78221;1298;3028184;-65